sensor_id;sensor_type;location;lat;lon;timestamp;P1;durP1;ratioP1;P2;durP2;ratioP2
10122;SDS011;5101;49.038;8.710;2022-10-30T00:00:52;11.98;;;6.13;;
10122;SDS011;5101;49.038;8.710;2022-10-30T00:03:17;8.05;;;5.88;;
10122;SDS011;5101;49.038;8.710;2022-10-30T00:05:44;10.02;;;6.43;;
10122;SDS011;5101;49.038;8.710;2022-10-30T00:08:11;12.75;;;7.10;;
10122;SDS011;5101;49.038;8.710;2022-10-30T00:10:38;8.63;;;5.82;;
10122;SDS011;5101;49.038;8.710;2022-10-30T00:13:04;9.95;;;6.55;;
10122;SDS011;5101;49.038;8.710;2022-10-30T00:15:30;12.15;;;6.03;;
10122;SDS011;5101;49.038;8.710;2022-10-30T00:17:55;10.38;;;5.78;;
10122;SDS011;5101;49.038;8.710;2022-10-30T00:20:21;8.93;;;6.38;;
10122;SDS011;5101;49.038;8.710;2022-10-30T00:22:46;9.10;;;5.80;;
10122;SDS011;5101;49.038;8.710;2022-10-30T00:25:12;8.73;;;5.80;;
10122;SDS011;5101;49.038;8.710;2022-10-30T00:27:37;9.02;;;6.00;;
10122;SDS011;5101;49.038;8.710;2022-10-30T00:30:03;10.90;;;6.47;;
10122;SDS011;5101;49.038;8.710;2022-10-30T00:32:29;11.00;;;5.97;;
10122;SDS011;5101;49.038;8.710;2022-10-30T00:34:54;12.30;;;6.55;;
10122;SDS011;5101;49.038;8.710;2022-10-30T00:37:20;11.32;;;6.50;;
10122;SDS011;5101;49.038;8.710;2022-10-30T00:39:45;11.60;;;6.00;;
10122;SDS011;5101;49.038;8.710;2022-10-30T00:42:11;10.25;;;5.97;;
10122;SDS011;5101;49.038;8.710;2022-10-30T00:49:49;10.30;;;5.55;;
10122;SDS011;5101;49.038;8.710;2022-10-30T00:52:20;16.48;;;6.45;;
10122;SDS011;5101;49.038;8.710;2022-10-30T00:54:49;16.63;;;6.90;;
10122;SDS011;5101;49.038;8.710;2022-10-30T00:57:16;15.90;;;6.32;;
10122;SDS011;5101;49.038;8.710;2022-10-30T00:59:42;10.90;;;6.07;;
10122;SDS011;5101;49.038;8.710;2022-10-30T01:02:09;12.98;;;6.78;;
10122;SDS011;5101;49.038;8.710;2022-10-30T01:04:35;15.25;;;6.82;;
10122;SDS011;5101;49.038;8.710;2022-10-30T01:07:07;14.43;;;6.68;;
10122;SDS011;5101;49.038;8.710;2022-10-30T01:09:35;10.27;;;6.20;;
10122;SDS011;5101;49.038;8.710;2022-10-30T01:12:02;11.32;;;6.72;;
10122;SDS011;5101;49.038;8.710;2022-10-30T01:14:28;10.40;;;6.47;;
10122;SDS011;5101;49.038;8.710;2022-10-30T01:19:51;10.85;;;6.07;;
10122;SDS011;5101;49.038;8.710;2022-10-30T01:22:36;12.20;;;6.32;;
10122;SDS011;5101;49.038;8.710;2022-10-30T01:25:31;15.95;;;6.68;;
10122;SDS011;5101;49.038;8.710;2022-10-30T01:28:21;11.88;;;6.80;;
10122;SDS011;5101;49.038;8.710;2022-10-30T01:31:08;9.60;;;6.13;;
10122;SDS011;5101;49.038;8.710;2022-10-30T01:37:02;12.25;;;5.75;;
10122;SDS011;5101;49.038;8.710;2022-10-30T01:39:43;9.75;;;6.38;;
10122;SDS011;5101;49.038;8.710;2022-10-30T01:42:09;9.75;;;6.18;;
10122;SDS011;5101;49.038;8.710;2022-10-30T01:44:55;9.15;;;5.57;;
10122;SDS011;5101;49.038;8.710;2022-10-30T01:47:24;10.05;;;5.55;;
10122;SDS011;5101;49.038;8.710;2022-10-30T01:52:59;11.60;;;5.97;;
10122;SDS011;5101;49.038;8.710;2022-10-30T02:00:24;15.05;;;5.63;;
10122;SDS011;5101;49.038;8.710;2022-10-30T02:02:51;10.95;;;6.00;;
10122;SDS011;5101;49.038;8.710;2022-10-30T02:05:24;13.93;;;5.93;;
10122;SDS011;5101;49.038;8.710;2022-10-30T02:07:51;13.20;;;6.13;;
10122;SDS011;5101;49.038;8.710;2022-10-30T02:10:17;6.95;;;5.22;;
10122;SDS011;5101;49.038;8.710;2022-10-30T02:12:42;16.98;;;6.72;;
10122;SDS011;5101;49.038;8.710;2022-10-30T02:15:08;7.22;;;5.38;;
10122;SDS011;5101;49.038;8.710;2022-10-30T02:17:34;10.65;;;6.03;;
10122;SDS011;5101;49.038;8.710;2022-10-30T02:20:01;14.55;;;6.20;;
10122;SDS011;5101;49.038;8.710;2022-10-30T02:22:27;9.57;;;6.40;;
10122;SDS011;5101;49.038;8.710;2022-10-30T02:24:52;9.77;;;5.72;;
10122;SDS011;5101;49.038;8.710;2022-10-30T02:27:18;12.70;;;6.38;;
10122;SDS011;5101;49.038;8.710;2022-10-30T02:29:43;9.85;;;5.45;;
10122;SDS011;5101;49.038;8.710;2022-10-30T02:32:09;12.68;;;5.57;;
10122;SDS011;5101;49.038;8.710;2022-10-30T02:34:34;12.13;;;5.90;;
10122;SDS011;5101;49.038;8.710;2022-10-30T02:37:00;11.02;;;6.10;;
10122;SDS011;5101;49.038;8.710;2022-10-30T02:39:26;8.95;;;5.13;;
10122;SDS011;5101;49.038;8.710;2022-10-30T02:41:51;9.68;;;5.35;;
10122;SDS011;5101;49.038;8.710;2022-10-30T02:44:17;11.52;;;5.88;;
10122;SDS011;5101;49.038;8.710;2022-10-30T02:46:42;14.07;;;5.95;;
10122;SDS011;5101;49.038;8.710;2022-10-30T02:49:08;11.80;;;5.15;;
10122;SDS011;5101;49.038;8.710;2022-10-30T02:51:33;10.15;;;5.43;;
10122;SDS011;5101;49.038;8.710;2022-10-30T02:53:59;8.68;;;5.30;;
10122;SDS011;5101;49.038;8.710;2022-10-30T02:56:25;8.35;;;5.30;;
10122;SDS011;5101;49.038;8.710;2022-10-30T02:58:50;12.35;;;6.15;;
10122;SDS011;5101;49.038;8.710;2022-10-30T03:01:17;11.32;;;6.72;;
10122;SDS011;5101;49.038;8.710;2022-10-30T03:03:44;11.05;;;6.32;;
10122;SDS011;5101;49.038;8.710;2022-10-30T03:06:11;9.27;;;5.85;;
10122;SDS011;5101;49.038;8.710;2022-10-30T03:08:39;10.13;;;5.80;;
10122;SDS011;5101;49.038;8.710;2022-10-30T03:11:10;11.23;;;5.43;;
10122;SDS011;5101;49.038;8.710;2022-10-30T03:13:38;10.27;;;6.05;;
10122;SDS011;5101;49.038;8.710;2022-10-30T03:16:12;11.68;;;5.63;;
10122;SDS011;5101;49.038;8.710;2022-10-30T03:18:39;9.77;;;5.63;;
10122;SDS011;5101;49.038;8.710;2022-10-30T03:21:05;13.48;;;5.35;;
10122;SDS011;5101;49.038;8.710;2022-10-30T03:23:34;11.10;;;5.90;;
10122;SDS011;5101;49.038;8.710;2022-10-30T03:25:59;11.88;;;5.65;;
10122;SDS011;5101;49.038;8.710;2022-10-30T03:28:26;11.63;;;5.55;;
10122;SDS011;5101;49.038;8.710;2022-10-30T03:31:00;11.98;;;5.50;;
10122;SDS011;5101;49.038;8.710;2022-10-30T03:33:27;9.57;;;5.50;;
10122;SDS011;5101;49.038;8.710;2022-10-30T03:35:53;9.10;;;5.30;;
10122;SDS011;5101;49.038;8.710;2022-10-30T03:38:19;6.82;;;5.35;;
10122;SDS011;5101;49.038;8.710;2022-10-30T03:40:44;7.50;;;4.80;;
10122;SDS011;5101;49.038;8.710;2022-10-30T03:43:10;13.35;;;5.90;;
10122;SDS011;5101;49.038;8.710;2022-10-30T03:45:35;8.10;;;5.18;;
10122;SDS011;5101;49.038;8.710;2022-10-30T03:48:01;9.65;;;5.53;;
10122;SDS011;5101;49.038;8.710;2022-10-30T03:50:27;11.60;;;5.57;;
10122;SDS011;5101;49.038;8.710;2022-10-30T03:52:54;9.98;;;5.55;;
10122;SDS011;5101;49.038;8.710;2022-10-30T03:55:19;11.50;;;5.63;;
10122;SDS011;5101;49.038;8.710;2022-10-30T03:57:45;11.23;;;5.75;;
10122;SDS011;5101;49.038;8.710;2022-10-30T04:00:11;18.38;;;5.90;;
10122;SDS011;5101;49.038;8.710;2022-10-30T04:02:37;11.02;;;5.72;;
10122;SDS011;5101;49.038;8.710;2022-10-30T04:05:03;7.90;;;5.43;;
10122;SDS011;5101;49.038;8.710;2022-10-30T04:07:29;9.00;;;5.47;;
10122;SDS011;5101;49.038;8.710;2022-10-30T04:09:54;9.07;;;5.32;;
10122;SDS011;5101;49.038;8.710;2022-10-30T04:12:20;10.77;;;5.82;;
10122;SDS011;5101;49.038;8.710;2022-10-30T04:14:46;9.43;;;6.25;;
10122;SDS011;5101;49.038;8.710;2022-10-30T04:17:11;9.45;;;6.20;;
10122;SDS011;5101;49.038;8.710;2022-10-30T04:19:37;7.50;;;5.03;;
10122;SDS011;5101;49.038;8.710;2022-10-30T04:22:02;7.05;;;5.28;;
10122;SDS011;5101;49.038;8.710;2022-10-30T04:24:28;8.30;;;5.80;;
10122;SDS011;5101;49.038;8.710;2022-10-30T04:26:53;8.95;;;5.43;;
10122;SDS011;5101;49.038;8.710;2022-10-30T04:29:19;7.38;;;5.35;;
10122;SDS011;5101;49.038;8.710;2022-10-30T04:31:45;8.48;;;5.05;;
10122;SDS011;5101;49.038;8.710;2022-10-30T04:34:10;8.63;;;4.90;;
10122;SDS011;5101;49.038;8.710;2022-10-30T04:36:36;8.60;;;5.30;;
10122;SDS011;5101;49.038;8.710;2022-10-30T04:39:02;9.93;;;5.40;;
10122;SDS011;5101;49.038;8.710;2022-10-30T04:41:27;10.32;;;5.18;;
10122;SDS011;5101;49.038;8.710;2022-10-30T04:43:53;8.15;;;5.20;;
10122;SDS011;5101;49.038;8.710;2022-10-30T04:46:18;9.43;;;5.00;;
10122;SDS011;5101;49.038;8.710;2022-10-30T04:48:44;10.23;;;5.05;;
10122;SDS011;5101;49.038;8.710;2022-10-30T04:51:10;9.60;;;5.30;;
10122;SDS011;5101;49.038;8.710;2022-10-30T04:53:35;11.77;;;5.50;;
10122;SDS011;5101;49.038;8.710;2022-10-30T04:56:02;5.13;;;4.40;;
10122;SDS011;5101;49.038;8.710;2022-10-30T04:58:28;11.43;;;5.45;;
10122;SDS011;5101;49.038;8.710;2022-10-30T05:00:53;11.52;;;5.50;;
10122;SDS011;5101;49.038;8.710;2022-10-30T05:03:19;8.10;;;5.80;;
10122;SDS011;5101;49.038;8.710;2022-10-30T05:05:47;9.77;;;5.00;;
10122;SDS011;5101;49.038;8.710;2022-10-30T05:08:19;10.05;;;5.68;;
10122;SDS011;5101;49.038;8.710;2022-10-30T05:10:45;8.23;;;5.40;;
10122;SDS011;5101;49.038;8.710;2022-10-30T05:13:10;12.57;;;6.10;;
10122;SDS011;5101;49.038;8.710;2022-10-30T05:15:36;8.02;;;5.43;;
10122;SDS011;5101;49.038;8.710;2022-10-30T05:18:02;8.90;;;6.32;;
10122;SDS011;5101;49.038;8.710;2022-10-30T05:20:27;15.07;;;5.90;;
10122;SDS011;5101;49.038;8.710;2022-10-30T05:22:56;8.55;;;5.65;;
10122;SDS011;5101;49.038;8.710;2022-10-30T05:25:23;11.20;;;6.30;;
10122;SDS011;5101;49.038;8.710;2022-10-30T05:27:49;10.10;;;6.13;;
10122;SDS011;5101;49.038;8.710;2022-10-30T05:30:15;16.17;;;6.40;;
10122;SDS011;5101;49.038;8.710;2022-10-30T05:32:41;13.57;;;7.30;;
10122;SDS011;5101;49.038;8.710;2022-10-30T05:35:06;13.65;;;6.50;;
10122;SDS011;5101;49.038;8.710;2022-10-30T05:37:32;16.05;;;6.53;;
10122;SDS011;5101;49.038;8.710;2022-10-30T05:39:58;7.53;;;5.72;;
10122;SDS011;5101;49.038;8.710;2022-10-30T05:42:23;11.02;;;5.70;;
10122;SDS011;5101;49.038;8.710;2022-10-30T05:44:49;11.57;;;5.65;;
10122;SDS011;5101;49.038;8.710;2022-10-30T05:47:14;8.68;;;6.18;;
10122;SDS011;5101;49.038;8.710;2022-10-30T05:49:40;11.77;;;6.03;;
10122;SDS011;5101;49.038;8.710;2022-10-30T05:52:05;11.88;;;6.25;;
10122;SDS011;5101;49.038;8.710;2022-10-30T05:54:31;9.48;;;5.57;;
10122;SDS011;5101;49.038;8.710;2022-10-30T05:56:56;11.48;;;6.10;;
10122;SDS011;5101;49.038;8.710;2022-10-30T05:59:22;12.27;;;6.22;;
10122;SDS011;5101;49.038;8.710;2022-10-30T06:01:48;15.00;;;6.68;;
10122;SDS011;5101;49.038;8.710;2022-10-30T06:04:13;8.60;;;5.60;;
10122;SDS011;5101;49.038;8.710;2022-10-30T06:06:39;11.65;;;6.38;;
10122;SDS011;5101;49.038;8.710;2022-10-30T06:09:04;11.10;;;6.05;;
10122;SDS011;5101;49.038;8.710;2022-10-30T06:11:30;11.30;;;6.15;;
10122;SDS011;5101;49.038;8.710;2022-10-30T06:13:55;15.82;;;6.85;;
10122;SDS011;5101;49.038;8.710;2022-10-30T06:16:21;10.85;;;6.72;;
10122;SDS011;5101;49.038;8.710;2022-10-30T06:18:46;11.90;;;6.47;;
10122;SDS011;5101;49.038;8.710;2022-10-30T06:21:12;13.10;;;6.15;;
10122;SDS011;5101;49.038;8.710;2022-10-30T06:23:37;16.40;;;6.40;;
10122;SDS011;5101;49.038;8.710;2022-10-30T06:26:03;13.52;;;6.35;;
10122;SDS011;5101;49.038;8.710;2022-10-30T06:28:28;7.68;;;5.78;;
10122;SDS011;5101;49.038;8.710;2022-10-30T06:30:54;11.63;;;5.97;;
10122;SDS011;5101;49.038;8.710;2022-10-30T06:33:20;8.00;;;5.97;;
10122;SDS011;5101;49.038;8.710;2022-10-30T06:35:48;10.25;;;6.20;;
10122;SDS011;5101;49.038;8.710;2022-10-30T06:38:14;9.88;;;5.70;;
10122;SDS011;5101;49.038;8.710;2022-10-30T06:40:41;10.20;;;6.22;;
10122;SDS011;5101;49.038;8.710;2022-10-30T06:43:06;12.88;;;5.97;;
10122;SDS011;5101;49.038;8.710;2022-10-30T06:45:33;9.38;;;6.63;;
10122;SDS011;5101;49.038;8.710;2022-10-30T06:47:59;13.48;;;8.25;;
10122;SDS011;5101;49.038;8.710;2022-10-30T06:50:25;12.45;;;8.50;;
10122;SDS011;5101;49.038;8.710;2022-10-30T06:52:51;14.80;;;9.05;;
10122;SDS011;5101;49.038;8.710;2022-10-30T06:55:19;10.20;;;8.10;;
10122;SDS011;5101;49.038;8.710;2022-10-30T06:57:44;9.13;;;7.10;;
10122;SDS011;5101;49.038;8.710;2022-10-30T07:00:10;12.10;;;7.22;;
10122;SDS011;5101;49.038;8.710;2022-10-30T07:02:36;13.00;;;6.68;;
10122;SDS011;5101;49.038;8.710;2022-10-30T07:05:02;15.30;;;6.85;;
10122;SDS011;5101;49.038;8.710;2022-10-30T07:07:28;9.60;;;6.20;;
10122;SDS011;5101;49.038;8.710;2022-10-30T07:09:54;8.73;;;7.30;;
10122;SDS011;5101;49.038;8.710;2022-10-30T07:12:19;10.68;;;7.05;;
10122;SDS011;5101;49.038;8.710;2022-10-30T07:14:45;13.50;;;7.40;;
10122;SDS011;5101;49.038;8.710;2022-10-30T07:17:10;11.00;;;7.45;;
10122;SDS011;5101;49.038;8.710;2022-10-30T07:19:36;11.48;;;5.95;;
10122;SDS011;5101;49.038;8.710;2022-10-30T07:22:01;10.32;;;6.80;;
10122;SDS011;5101;49.038;8.710;2022-10-30T07:24:27;9.88;;;6.13;;
10122;SDS011;5101;49.038;8.710;2022-10-30T07:26:53;10.65;;;6.63;;
10122;SDS011;5101;49.038;8.710;2022-10-30T07:29:19;12.85;;;6.55;;
10122;SDS011;5101;49.038;8.710;2022-10-30T07:31:45;7.75;;;5.57;;
10122;SDS011;5101;49.038;8.710;2022-10-30T07:34:11;11.48;;;6.15;;
10122;SDS011;5101;49.038;8.710;2022-10-30T07:36:37;8.40;;;5.82;;
10122;SDS011;5101;49.038;8.710;2022-10-30T07:39:02;10.90;;;5.68;;
10122;SDS011;5101;49.038;8.710;2022-10-30T07:41:28;9.38;;;5.85;;
10122;SDS011;5101;49.038;8.710;2022-10-30T07:43:53;11.55;;;5.70;;
10122;SDS011;5101;49.038;8.710;2022-10-30T07:46:19;23.25;;;9.77;;
10122;SDS011;5101;49.038;8.710;2022-10-30T07:48:44;21.77;;;10.45;;
10122;SDS011;5101;49.038;8.710;2022-10-30T07:51:11;10.70;;;6.38;;
10122;SDS011;5101;49.038;8.710;2022-10-30T07:53:39;10.82;;;6.20;;
10122;SDS011;5101;49.038;8.710;2022-10-30T07:56:04;10.02;;;5.75;;
10122;SDS011;5101;49.038;8.710;2022-10-30T07:58:30;13.20;;;5.60;;
10122;SDS011;5101;49.038;8.710;2022-10-30T08:00:56;12.05;;;6.97;;
10122;SDS011;5101;49.038;8.710;2022-10-30T08:03:21;11.93;;;5.75;;
10122;SDS011;5101;49.038;8.710;2022-10-30T08:05:47;9.30;;;5.57;;
10122;SDS011;5101;49.038;8.710;2022-10-30T08:08:12;10.40;;;5.60;;
10122;SDS011;5101;49.038;8.710;2022-10-30T08:10:38;7.20;;;5.68;;
10122;SDS011;5101;49.038;8.710;2022-10-30T08:13:03;10.95;;;6.00;;
10122;SDS011;5101;49.038;8.710;2022-10-30T08:15:29;7.78;;;5.43;;
10122;SDS011;5101;49.038;8.710;2022-10-30T08:17:54;9.23;;;5.38;;
10122;SDS011;5101;49.038;8.710;2022-10-30T08:20:21;10.15;;;5.13;;
10122;SDS011;5101;49.038;8.710;2022-10-30T08:25:13;11.70;;;5.57;;
10122;SDS011;5101;49.038;8.710;2022-10-30T08:27:48;6.97;;;4.60;;
10122;SDS011;5101;49.038;8.710;2022-10-30T08:30:21;7.47;;;4.82;;
10122;SDS011;5101;49.038;8.710;2022-10-30T08:32:48;9.55;;;4.75;;
10122;SDS011;5101;49.038;8.710;2022-10-30T08:35:13;8.30;;;5.28;;
10122;SDS011;5101;49.038;8.710;2022-10-30T08:37:40;7.80;;;5.05;;
10122;SDS011;5101;49.038;8.710;2022-10-30T08:40:06;10.60;;;4.60;;
10122;SDS011;5101;49.038;8.710;2022-10-30T08:42:32;10.65;;;4.55;;
10122;SDS011;5101;49.038;8.710;2022-10-30T08:44:57;8.45;;;4.30;;
10122;SDS011;5101;49.038;8.710;2022-10-30T08:47:23;10.00;;;4.65;;
10122;SDS011;5101;49.038;8.710;2022-10-30T08:49:48;12.45;;;4.97;;
10122;SDS011;5101;49.038;8.710;2022-10-30T08:52:14;5.60;;;4.15;;
10122;SDS011;5101;49.038;8.710;2022-10-30T08:54:39;10.45;;;4.85;;
10122;SDS011;5101;49.038;8.710;2022-10-30T08:57:05;7.03;;;4.07;;
10122;SDS011;5101;49.038;8.710;2022-10-30T08:59:30;10.30;;;4.30;;
10122;SDS011;5101;49.038;8.710;2022-10-30T09:01:56;9.15;;;4.53;;
10122;SDS011;5101;49.038;8.710;2022-10-30T09:04:21;9.70;;;4.38;;
10122;SDS011;5101;49.038;8.710;2022-10-30T09:06:47;11.77;;;4.40;;
10122;SDS011;5101;49.038;8.710;2022-10-30T09:09:12;7.07;;;3.85;;
10122;SDS011;5101;49.038;8.710;2022-10-30T09:11:38;7.93;;;3.65;;
10122;SDS011;5101;49.038;8.710;2022-10-30T09:14:04;7.55;;;3.90;;
10122;SDS011;5101;49.038;8.710;2022-10-30T09:16:29;7.72;;;4.13;;
10122;SDS011;5101;49.038;8.710;2022-10-30T09:18:55;8.63;;;4.47;;
10122;SDS011;5101;49.038;8.710;2022-10-30T09:21:20;6.32;;;3.75;;
10122;SDS011;5101;49.038;8.710;2022-10-30T09:23:45;11.90;;;3.97;;
10122;SDS011;5101;49.038;8.710;2022-10-30T09:26:11;10.57;;;4.07;;
10122;SDS011;5101;49.038;8.710;2022-10-30T09:28:37;12.07;;;4.00;;
10122;SDS011;5101;49.038;8.710;2022-10-30T09:31:02;7.45;;;4.03;;
10122;SDS011;5101;49.038;8.710;2022-10-30T09:33:28;12.32;;;3.75;;
10122;SDS011;5101;49.038;8.710;2022-10-30T09:35:54;7.25;;;3.55;;
10122;SDS011;5101;49.038;8.710;2022-10-30T09:38:19;9.52;;;3.40;;
10122;SDS011;5101;49.038;8.710;2022-10-30T09:51:46;9.27;;;3.53;;
10122;SDS011;5101;49.038;8.710;2022-10-30T09:54:38;8.02;;;3.65;;
10122;SDS011;5101;49.038;8.710;2022-10-30T10:00:11;9.40;;;3.65;;
10122;SDS011;5101;49.038;8.710;2022-10-30T10:05:52;10.43;;;3.50;;
10122;SDS011;5101;49.038;8.710;2022-10-30T10:08:22;8.45;;;3.58;;
10122;SDS011;5101;49.038;8.710;2022-10-30T10:10:54;6.30;;;3.30;;
10122;SDS011;5101;49.038;8.710;2022-10-30T10:16:10;6.03;;;2.97;;
10122;SDS011;5101;49.038;8.710;2022-10-30T10:18:48;5.35;;;2.92;;
10122;SDS011;5101;49.038;8.710;2022-10-30T10:21:26;7.32;;;3.30;;
10122;SDS011;5101;49.038;8.710;2022-10-30T10:23:54;12.68;;;3.08;;
10122;SDS011;5101;49.038;8.710;2022-10-30T10:26:29;6.80;;;3.03;;
10122;SDS011;5101;49.038;8.710;2022-10-30T10:34:34;5.75;;;2.92;;
10122;SDS011;5101;49.038;8.710;2022-10-30T10:37:41;8.30;;;3.10;;
10122;SDS011;5101;49.038;8.710;2022-10-30T10:40:19;7.60;;;2.95;;
10122;SDS011;5101;49.038;8.710;2022-10-30T10:51:17;10.50;;;3.88;;
10122;SDS011;5101;49.038;8.710;2022-10-30T10:53:57;8.10;;;2.70;;
10122;SDS011;5101;49.038;8.710;2022-10-30T10:56:37;6.32;;;3.47;;
10122;SDS011;5101;49.038;8.710;2022-10-30T11:01:39;8.13;;;3.40;;
10122;SDS011;5101;49.038;8.710;2022-10-30T11:06:51;8.30;;;4.20;;
10122;SDS011;5101;49.038;8.710;2022-10-30T11:09:20;9.68;;;3.55;;
10122;SDS011;5101;49.038;8.710;2022-10-30T11:11:48;10.27;;;4.68;;
10122;SDS011;5101;49.038;8.710;2022-10-30T11:14:26;10.82;;;4.05;;
10122;SDS011;5101;49.038;8.710;2022-10-30T11:19:43;6.53;;;3.53;;
10122;SDS011;5101;49.038;8.710;2022-10-30T11:22:26;10.50;;;4.32;;
10122;SDS011;5101;49.038;8.710;2022-10-30T11:25:00;9.68;;;5.15;;
10122;SDS011;5101;49.038;8.710;2022-10-30T11:27:46;8.38;;;3.08;;
10122;SDS011;5101;49.038;8.710;2022-10-30T11:30:25;7.45;;;3.45;;
10122;SDS011;5101;49.038;8.710;2022-10-30T11:32:53;8.60;;;3.78;;
10122;SDS011;5101;49.038;8.710;2022-10-30T11:35:22;9.02;;;3.20;;
10122;SDS011;5101;49.038;8.710;2022-10-30T11:37:50;7.28;;;3.22;;
10122;SDS011;5101;49.038;8.710;2022-10-30T11:40:35;7.90;;;3.00;;
10122;SDS011;5101;49.038;8.710;2022-10-30T11:43:01;6.80;;;3.05;;
10122;SDS011;5101;49.038;8.710;2022-10-30T11:45:29;7.20;;;3.22;;
10122;SDS011;5101;49.038;8.710;2022-10-30T11:48:00;11.38;;;4.30;;
10122;SDS011;5101;49.038;8.710;2022-10-30T11:50:32;6.97;;;3.47;;
10122;SDS011;5101;49.038;8.710;2022-10-30T11:53:02;8.52;;;3.67;;
10122;SDS011;5101;49.038;8.710;2022-10-30T11:55:38;8.07;;;3.55;;
10122;SDS011;5101;49.038;8.710;2022-10-30T11:58:05;5.68;;;3.33;;
10122;SDS011;5101;49.038;8.710;2022-10-30T12:00:35;10.55;;;4.20;;
10122;SDS011;5101;49.038;8.710;2022-10-30T12:03:09;7.40;;;3.67;;
10122;SDS011;5101;49.038;8.710;2022-10-30T12:05:52;5.55;;;2.90;;
10122;SDS011;5101;49.038;8.710;2022-10-30T12:08:35;6.10;;;2.90;;
10122;SDS011;5101;49.038;8.710;2022-10-30T12:11:02;7.05;;;2.92;;
10122;SDS011;5101;49.038;8.710;2022-10-30T12:13:35;7.68;;;2.97;;
10122;SDS011;5101;49.038;8.710;2022-10-30T12:16:04;5.35;;;2.72;;
10122;SDS011;5101;49.038;8.710;2022-10-30T12:18:38;4.63;;;3.08;;
10122;SDS011;5101;49.038;8.710;2022-10-30T12:21:04;7.78;;;2.83;;
10122;SDS011;5101;49.038;8.710;2022-10-30T12:23:30;10.35;;;3.10;;
10122;SDS011;5101;49.038;8.710;2022-10-30T12:26:00;5.85;;;3.10;;
10122;SDS011;5101;49.038;8.710;2022-10-30T12:28:33;5.80;;;3.25;;
10122;SDS011;5101;49.038;8.710;2022-10-30T12:31:18;7.68;;;3.30;;
10122;SDS011;5101;49.038;8.710;2022-10-30T12:34:03;5.95;;;2.72;;
10122;SDS011;5101;49.038;8.710;2022-10-30T12:36:32;5.97;;;3.75;;
10122;SDS011;5101;49.038;8.710;2022-10-30T12:39:04;9.57;;;3.20;;
10122;SDS011;5101;49.038;8.710;2022-10-30T12:41:42;11.75;;;3.35;;
10122;SDS011;5101;49.038;8.710;2022-10-30T12:44:17;6.55;;;3.53;;
10122;SDS011;5101;49.038;8.710;2022-10-30T12:49:39;6.75;;;3.42;;
10122;SDS011;5101;49.038;8.710;2022-10-30T12:55:08;7.22;;;3.70;;
10122;SDS011;5101;49.038;8.710;2022-10-30T13:00:57;9.68;;;3.90;;
10122;SDS011;5101;49.038;8.710;2022-10-30T13:03:28;11.40;;;3.97;;
10122;SDS011;5101;49.038;8.710;2022-10-30T13:06:04;9.20;;;4.20;;
10122;SDS011;5101;49.038;8.710;2022-10-30T13:11:27;7.50;;;3.47;;
10122;SDS011;5101;49.038;8.710;2022-10-30T13:17:30;13.82;;;4.20;;
10122;SDS011;5101;49.038;8.710;2022-10-30T13:19:55;10.27;;;3.40;;
10122;SDS011;5101;49.038;8.710;2022-10-30T13:22:24;9.13;;;3.90;;
10122;SDS011;5101;49.038;8.710;2022-10-30T13:30:13;8.73;;;4.10;;
10122;SDS011;5101;49.038;8.710;2022-10-30T13:38:19;7.45;;;3.53;;
10122;SDS011;5101;49.038;8.710;2022-10-30T13:46:51;6.22;;;3.22;;
10122;SDS011;5101;49.038;8.710;2022-10-30T13:49:39;8.18;;;3.65;;
10122;SDS011;5101;49.038;8.710;2022-10-30T13:52:15;4.97;;;3.55;;
10122;SDS011;5101;49.038;8.710;2022-10-30T13:54:44;5.63;;;3.55;;
10122;SDS011;5101;49.038;8.710;2022-10-30T14:10:42;8.88;;;3.58;;
10122;SDS011;5101;49.038;8.710;2022-10-30T14:13:13;6.25;;;3.33;;
10122;SDS011;5101;49.038;8.710;2022-10-30T14:15:50;6.63;;;3.33;;
10122;SDS011;5101;49.038;8.710;2022-10-30T14:18:30;9.73;;;3.78;;
10122;SDS011;5101;49.038;8.710;2022-10-30T14:26:37;7.55;;;3.22;;
10122;SDS011;5101;49.038;8.710;2022-10-30T14:29:28;7.25;;;3.22;;
10122;SDS011;5101;49.038;8.710;2022-10-30T14:31:57;9.25;;;3.90;;
10122;SDS011;5101;49.038;8.710;2022-10-30T14:39:53;5.97;;;3.50;;
10122;SDS011;5101;49.038;8.710;2022-10-30T14:47:59;6.30;;;3.28;;
10122;SDS011;5101;49.038;8.710;2022-10-30T14:52:59;7.00;;;3.97;;
10122;SDS011;5101;49.038;8.710;2022-10-30T14:58:28;8.10;;;3.40;;
10122;SDS011;5101;49.038;8.710;2022-10-30T15:03:34;11.07;;;3.90;;
10122;SDS011;5101;49.038;8.710;2022-10-30T15:14:24;13.65;;;4.15;;
10122;SDS011;5101;49.038;8.710;2022-10-30T15:17:00;8.73;;;3.88;;
10122;SDS011;5101;49.038;8.710;2022-10-30T15:19:26;11.52;;;3.83;;
10122;SDS011;5101;49.038;8.710;2022-10-30T15:21:53;9.38;;;3.72;;
10122;SDS011;5101;49.038;8.710;2022-10-30T15:24:24;8.05;;;3.58;;
10122;SDS011;5101;49.038;8.710;2022-10-30T15:26:52;6.05;;;3.53;;
10122;SDS011;5101;49.038;8.710;2022-10-30T15:29:21;8.10;;;3.83;;
10122;SDS011;5101;49.038;8.710;2022-10-30T15:31:56;11.18;;;3.78;;
10122;SDS011;5101;49.038;8.710;2022-10-30T15:34:27;8.77;;;4.15;;
10122;SDS011;5101;49.038;8.710;2022-10-30T15:36:53;8.10;;;3.75;;
10122;SDS011;5101;49.038;8.710;2022-10-30T15:39:19;11.43;;;4.25;;
10122;SDS011;5101;49.038;8.710;2022-10-30T15:41:46;6.72;;;4.03;;
10122;SDS011;5101;49.038;8.710;2022-10-30T15:44:21;11.50;;;4.15;;
10122;SDS011;5101;49.038;8.710;2022-10-30T15:46:50;11.57;;;3.67;;
10122;SDS011;5101;49.038;8.710;2022-10-30T15:49:19;9.13;;;4.15;;
10122;SDS011;5101;49.038;8.710;2022-10-30T15:51:56;6.00;;;4.20;;
10122;SDS011;5101;49.038;8.710;2022-10-30T15:54:23;9.45;;;4.65;;
10122;SDS011;5101;49.038;8.710;2022-10-30T15:56:52;11.15;;;4.43;;
10122;SDS011;5101;49.038;8.710;2022-10-30T15:59:24;7.57;;;3.90;;
10122;SDS011;5101;49.038;8.710;2022-10-30T16:01:52;8.48;;;4.57;;
10122;SDS011;5101;49.038;8.710;2022-10-30T16:04:52;8.23;;;3.95;;
10122;SDS011;5101;49.038;8.710;2022-10-30T16:07:16;11.20;;;5.85;;
10122;SDS011;5101;49.038;8.710;2022-10-30T16:09:50;10.73;;;5.25;;
10122;SDS011;5101;49.038;8.710;2022-10-30T16:12:17;8.70;;;5.20;;
10122;SDS011;5101;49.038;8.710;2022-10-30T16:14:43;13.50;;;5.30;;
10122;SDS011;5101;49.038;8.710;2022-10-30T16:17:09;12.25;;;5.35;;
10122;SDS011;5101;49.038;8.710;2022-10-30T16:19:39;11.00;;;5.25;;
10122;SDS011;5101;49.038;8.710;2022-10-30T16:22:10;10.68;;;5.40;;
10122;SDS011;5101;49.038;8.710;2022-10-30T16:24:39;23.90;;;19.17;;
10122;SDS011;5101;49.038;8.710;2022-10-30T16:27:06;10.82;;;6.70;;
10122;SDS011;5101;49.038;8.710;2022-10-30T16:29:38;11.05;;;6.97;;
10122;SDS011;5101;49.038;8.710;2022-10-30T16:32:07;14.35;;;9.65;;
10122;SDS011;5101;49.038;8.710;2022-10-30T16:34:57;13.05;;;9.40;;
10122;SDS011;5101;49.038;8.710;2022-10-30T16:37:26;8.02;;;6.65;;
10122;SDS011;5101;49.038;8.710;2022-10-30T16:39:57;12.95;;;8.45;;
10122;SDS011;5101;49.038;8.710;2022-10-30T16:42:27;12.00;;;8.18;;
10122;SDS011;5101;49.038;8.710;2022-10-30T16:47:43;10.48;;;7.97;;
10122;SDS011;5101;49.038;8.710;2022-10-30T16:50:13;11.85;;;7.95;;
10122;SDS011;5101;49.038;8.710;2022-10-30T16:52:40;13.05;;;7.65;;
10122;SDS011;5101;49.038;8.710;2022-10-30T16:57:42;14.77;;;7.45;;
10122;SDS011;5101;49.038;8.710;2022-10-30T17:00:20;10.55;;;6.78;;
10122;SDS011;5101;49.038;8.710;2022-10-30T17:02:48;11.65;;;7.15;;
10122;SDS011;5101;49.038;8.710;2022-10-30T17:05:19;9.30;;;5.90;;
10122;SDS011;5101;49.038;8.710;2022-10-30T17:07:57;13.30;;;6.18;;
10122;SDS011;5101;49.038;8.710;2022-10-30T17:10:54;9.20;;;6.25;;
10122;SDS011;5101;49.038;8.710;2022-10-30T17:13:30;10.13;;;5.40;;
10122;SDS011;5101;49.038;8.710;2022-10-30T17:15:56;7.65;;;5.38;;
10122;SDS011;5101;49.038;8.710;2022-10-30T17:18:27;10.30;;;5.07;;
10122;SDS011;5101;49.038;8.710;2022-10-30T17:21:00;11.57;;;6.35;;
10122;SDS011;5101;49.038;8.710;2022-10-30T17:23:49;9.82;;;6.00;;
10122;SDS011;5101;49.038;8.710;2022-10-30T17:26:19;9.60;;;5.43;;
10122;SDS011;5101;49.038;8.710;2022-10-30T17:28:45;8.85;;;5.22;;
10122;SDS011;5101;49.038;8.710;2022-10-30T17:34:03;10.68;;;5.43;;
10122;SDS011;5101;49.038;8.710;2022-10-30T17:36:36;11.70;;;5.78;;